createdAt,value
2023-05-09T00:00:11.318Z,95382.09
2023-05-09T00:02:40.614Z,95384.84
2023-05-09T00:05:10.228Z,95372.25
2023-05-09T00:07:38.251Z,95348.94
2023-05-09T00:10:07.292Z,95376.91
2023-05-09T00:12:36.270Z,95358.25
2023-05-09T00:15:04.692Z,95369.41
2023-05-09T00:17:37.072Z,95380.94
2023-05-09T00:20:09.222Z,95345.06
2023-05-09T00:22:37.384Z,95363.81
2023-05-09T00:25:07.012Z,95381.31
2023-05-09T00:27:35.344Z,95372.53
2023-05-09T00:30:03.872Z,95374.97
2023-05-09T00:32:33.646Z,95361.19
2023-05-09T00:35:02.054Z,95373.69
2023-05-09T00:37:31.101Z,95373.00
2023-05-09T00:39:59.316Z,95367.31
2023-05-09T00:42:27.979Z,95379.84
2023-05-09T00:44:56.333Z,95370.06
2023-05-09T00:47:25.474Z,95329.03
2023-05-09T00:49:55.171Z,95368.38
2023-05-09T00:52:25.946Z,95377.88
2023-05-09T00:54:54.491Z,95314.56
2023-05-09T00:57:24.236Z,95386.47
2023-05-09T00:59:52.274Z,95340.34
2023-05-09T01:02:20.646Z,95359.03
2023-05-09T01:04:49.277Z,95382.56
2023-05-09T01:07:26.081Z,95369.00
2023-05-09T01:10:02.278Z,95382.09
2023-05-09T01:12:39.047Z,95374.41
2023-05-09T01:15:13.896Z,95375.91
2023-05-09T01:17:51.789Z,95368.38
2023-05-09T01:20:24.678Z,95352.72
2023-05-09T01:23:05.744Z,95361.44
2023-05-09T01:25:51.231Z,95371.56
2023-05-09T01:28:35.728Z,95374.72
2023-05-09T01:31:08.359Z,95369.16
2023-05-09T01:33:41.683Z,95364.78
2023-05-09T01:36:15.527Z,95368.09
2023-05-09T01:38:45.605Z,95364.91
2023-05-09T01:41:18.144Z,95372.00
2023-05-09T01:43:50.730Z,95364.16
2023-05-09T01:46:23.275Z,95373.19
2023-05-09T01:48:52.315Z,95360.84
2023-05-09T01:51:22.466Z,95377.09
2023-05-09T01:53:52.901Z,95365.06
2023-05-09T01:56:23.967Z,95366.88
2023-05-09T01:58:57.725Z,95374.41
2023-05-09T02:01:29.226Z,95373.19
2023-05-09T02:03:59.145Z,95359.50
2023-05-09T02:06:29.989Z,95380.16
2023-05-09T02:08:59.378Z,95378.34
2023-05-09T02:11:27.935Z,95376.50
2023-05-09T02:13:56.392Z,95380.91
2023-05-09T02:16:24.516Z,95384.94
2023-05-09T02:18:54.219Z,95380.28
2023-05-09T02:21:24.212Z,95375.94
2023-05-09T02:23:55.228Z,95370.34
2023-05-09T02:26:23.926Z,95352.09
2023-05-09T02:28:52.789Z,95378.34
2023-05-09T02:31:23.736Z,95376.53
2023-05-09T02:33:55.626Z,95326.16
2023-05-09T02:36:25.631Z,95385.88
2023-05-09T02:38:55.984Z,95382.09
2023-05-09T02:41:24.026Z,95374.41
2023-05-09T02:43:51.928Z,95372.47
2023-05-09T02:46:20.337Z,95370.81
2023-05-09T02:48:49.476Z,95375.00
2023-05-09T02:51:19.168Z,95374.88
2023-05-09T02:53:47.264Z,95375.31
2023-05-09T02:56:15.761Z,95377.28
2023-05-09T02:58:43.982Z,95378.78
2023-05-09T03:01:12.597Z,95381.50
2023-05-09T03:03:41.179Z,95389.97
2023-05-09T03:06:09.675Z,95387.09
2023-05-09T03:08:39.266Z,95397.81
2023-05-09T03:11:07.466Z,95401.25
2023-05-09T03:13:35.841Z,95393.09
2023-05-09T03:16:04.286Z,95405.31
2023-05-09T03:18:32.829Z,95400.03
2023-05-09T03:21:00.870Z,95415.66
2023-05-09T03:23:29.237Z,95431.22
2023-05-09T03:25:58.686Z,95425.31
2023-05-09T03:28:26.889Z,95434.66
2023-05-09T03:30:54.996Z,95447.16
2023-05-09T03:33:23.601Z,95419.81
2023-05-09T03:35:51.906Z,95374.56
2023-05-09T03:38:20.388Z,95439.47
2023-05-09T03:40:48.578Z,95442.91
2023-05-09T03:43:19.102Z,95441.41
2023-05-09T03:45:47.332Z,95441.84
2023-05-09T03:48:15.343Z,95447.88
2023-05-09T03:50:43.559Z,95438.69
2023-05-09T03:53:13.427Z,95429.19
2023-05-09T03:55:41.467Z,95439.28
2023-05-09T03:58:09.446Z,95450.31
2023-05-09T04:00:39.226Z,95446.72
2023-05-09T04:03:07.680Z,95439.59
2023-05-09T04:05:36.375Z,95443.06
2023-05-09T04:08:04.656Z,95435.59
2023-05-09T04:10:33.232Z,95432.91
2023-05-09T04:13:01.595Z,95438.03
2023-05-09T04:15:29.952Z,95442.28
2023-05-09T04:17:59.819Z,95444.22
2023-05-09T04:20:28.029Z,95440.19
2023-05-09T04:22:56.876Z,95433.50
2023-05-09T04:25:25.227Z,95442.25
2023-05-09T04:27:53.691Z,95439.69
2023-05-09T04:30:22.812Z,95438.34
2023-05-09T04:32:51.279Z,95450.72
2023-05-09T04:35:21.818Z,95442.75
2023-05-09T04:37:50.943Z,95444.09
2023-05-09T04:40:19.342Z,95441.13
2023-05-09T04:42:48.564Z,95442.59
2023-05-09T04:45:16.835Z,95399.59
2023-05-09T04:47:46.711Z,95426.72
2023-05-09T04:50:14.906Z,95423.97
2023-05-09T04:52:44.518Z,95445.25
2023-05-09T04:55:12.872Z,95434.00
2023-05-09T04:57:41.341Z,95425.13
2023-05-09T05:00:11.773Z,95424.53
2023-05-09T05:02:42.762Z,95440.34
2023-05-09T05:05:12.464Z,95443.53
2023-05-09T05:07:55.644Z,95447.59
2023-05-09T05:10:23.674Z,95443.53
2023-05-09T05:12:52.358Z,95414.56
2023-05-09T05:15:20.900Z,95441.72
2023-05-09T05:17:50.029Z,95445.94
2023-05-09T05:20:18.393Z,95446.25
2023-05-09T05:22:46.878Z,95428.72
2023-05-09T05:25:17.947Z,95438.97
2023-05-09T05:27:46.165Z,95440.78
2023-05-09T05:30:15.997Z,95444.09
2023-05-09T05:32:44.268Z,95427.41
2023-05-09T05:35:14.332Z,95435.22
2023-05-09T05:37:49.036Z,95434.59
2023-05-09T05:40:18.922Z,95454.25
2023-05-09T05:42:50.517Z,95428.44
2023-05-09T05:45:19.896Z,95406.41
2023-05-09T05:47:48.068Z,95396.16
2023-05-09T05:50:16.737Z,95428.69
2023-05-09T05:52:44.734Z,95440.59
2023-05-09T05:55:13.156Z,95442.50
2023-05-09T05:57:42.748Z,95438.25
2023-05-09T06:00:12.356Z,95446.56
2023-05-09T06:02:42.603Z,95445.94
2023-05-09T06:05:11.630Z,95411.41
2023-05-09T06:07:41.273Z,95442.53
2023-05-09T06:10:10.237Z,95428.97
2023-05-09T06:12:38.216Z,95425.78
2023-05-09T06:15:09.184Z,95443.34
2023-05-09T06:17:37.722Z,95447.94
2023-05-09T06:20:07.631Z,95434.94
2023-05-09T06:22:35.982Z,95441.25
2023-05-09T06:25:04.599Z,95441.53
2023-05-09T06:27:33.073Z,95412.56
2023-05-09T06:30:04.303Z,95435.88
2023-05-09T06:32:38.321Z,95437.88
2023-05-09T06:35:07.916Z,95398.84
2023-05-09T06:37:36.341Z,95443.56
2023-05-09T06:40:06.426Z,95448.25
2023-05-09T06:42:34.662Z,95431.81
2023-05-09T06:45:02.984Z,95435.47
2023-05-09T06:47:31.244Z,95435.59
2023-05-09T06:50:00.774Z,95430.50
2023-05-09T06:52:30.785Z,95444.28
2023-05-09T06:54:58.931Z,95438.06
2023-05-09T06:57:27.488Z,95439.81
2023-05-09T06:59:56.138Z,95438.19
2023-05-09T07:02:25.890Z,95431.69
2023-05-09T07:04:54.737Z,95443.03
2023-05-09T07:07:25.043Z,95432.72
2023-05-09T07:10:00.690Z,95416.84
2023-05-09T07:12:36.110Z,95395.97
2023-05-09T07:15:04.204Z,95391.34
2023-05-09T07:17:32.349Z,95427.56
2023-05-09T07:20:00.664Z,95423.03
2023-05-09T07:22:31.757Z,95424.25
2023-05-09T07:25:00.931Z,95432.78
2023-05-09T07:27:33.753Z,95430.03
2023-05-09T07:30:03.221Z,95433.81
2023-05-09T07:32:31.454Z,95428.50
2023-05-09T07:35:00.775Z,95426.25
2023-05-09T07:37:30.492Z,95440.69
2023-05-09T07:40:00.958Z,95383.59
2023-05-09T07:42:30.588Z,95437.59
2023-05-09T07:44:59.245Z,95389.38
2023-05-09T07:47:27.463Z,95444.66
2023-05-09T07:49:55.929Z,95428.06
2023-05-09T07:52:24.124Z,95445.31
2023-05-09T07:54:54.981Z,95434.44
2023-05-09T07:57:24.541Z,95439.78
2023-05-09T07:59:54.021Z,95417.94
2023-05-09T08:02:22.457Z,95431.47
2023-05-09T08:04:51.521Z,95444.38
2023-05-09T08:07:20.535Z,95430.78
2023-05-09T08:09:48.651Z,95425.81
2023-05-09T08:12:18.601Z,95440.06
2023-05-09T08:14:47.123Z,95429.28
2023-05-09T08:17:18.236Z,95422.25
2023-05-09T08:19:46.370Z,95437.16
2023-05-09T08:22:20.532Z,95440.91
2023-05-09T08:24:49.173Z,95433.66
2023-05-09T08:27:19.196Z,95451.81
2023-05-09T08:29:47.961Z,95427.44
2023-05-09T08:32:16.126Z,95445.34
2023-05-09T08:34:46.818Z,95428.06
2023-05-09T08:37:15.743Z,95436.94
2023-05-09T08:39:44.384Z,95363.06
2023-05-09T08:42:12.594Z,95429.44
2023-05-09T08:44:42.310Z,95427.41
2023-05-09T08:47:10.990Z,95424.22
2023-05-09T08:49:39.614Z,95416.06
2023-05-09T08:52:09.007Z,95419.34
2023-05-09T08:54:37.816Z,95424.81
2023-05-09T08:57:07.704Z,95425.66
2023-05-09T08:59:37.636Z,95426.81
2023-05-09T09:02:13.983Z,95425.91
2023-05-09T09:04:42.951Z,95425.56
2023-05-09T09:07:12.424Z,95425.47
2023-05-09T09:09:46.472Z,95430.00
2023-05-09T09:12:17.415Z,95418.97
2023-05-09T09:14:49.955Z,95374.56
2023-05-09T09:17:21.502Z,95425.94
2023-05-09T09:19:51.374Z,95418.78
2023-05-09T09:22:23.029Z,95429.88
2023-05-09T09:24:52.456Z,95409.59
2023-05-09T09:27:23.111Z,95433.66
2023-05-09T09:29:51.348Z,95419.88
2023-05-09T09:32:21.625Z,95435.88
2023-05-09T09:34:53.232Z,95442.91
2023-05-09T09:37:24.978Z,95447.91
2023-05-09T09:39:57.197Z,95430.97
2023-05-09T09:42:25.358Z,95438.44
2023-05-09T09:44:58.711Z,95417.97
2023-05-09T09:47:34.158Z,95435.44
2023-05-09T09:50:12.366Z,95434.22
2023-05-09T09:52:45.431Z,95434.44
2023-05-09T09:55:16.264Z,95435.63
2023-05-09T09:57:46.714Z,95437.44
2023-05-09T10:00:18.380Z,95422.81
2023-05-09T10:02:53.246Z,95432.53
2023-05-09T10:05:22.978Z,95438.44
2023-05-09T10:07:56.981Z,95434.72
2023-05-09T10:10:27.831Z,95401.09
2023-05-09T10:12:58.807Z,95402.81
2023-05-09T10:15:30.049Z,95390.06
2023-05-09T10:18:04.918Z,95426.06
2023-05-09T10:20:33.393Z,95421.97
2023-05-09T10:23:04.570Z,95426.72
2023-05-09T10:25:41.027Z,95403.03
2023-05-09T10:28:13.423Z,95427.03
2023-05-09T10:30:51.966Z,95425.19
2023-05-09T10:33:28.837Z,95405.28
2023-05-09T10:36:02.223Z,95411.66
2023-05-09T10:38:32.915Z,95410.69
2023-05-09T10:41:01.913Z,95419.38
2023-05-09T10:43:32.253Z,95399.09
2023-05-09T10:46:00.939Z,95384.41
2023-05-09T10:48:30.839Z,95422.56
2023-05-09T10:50:59.044Z,95418.34
2023-05-09T10:53:42.485Z,95417.38
2023-05-09T10:56:11.011Z,95429.56
2023-05-09T10:58:40.985Z,95422.56
2023-05-09T11:01:11.961Z,95435.56
2023-05-09T11:03:59.242Z,95425.91
2023-05-09T11:06:51.685Z,95421.38
2023-05-09T11:09:34.518Z,95410.94
2023-05-09T11:12:11.513Z,95419.78
2023-05-09T11:14:43.288Z,95434.69
2023-05-09T11:17:13.445Z,95433.50
2023-05-09T11:20:05.832Z,95414.03
2023-05-09T11:22:41.608Z,95423.31
2023-05-09T11:25:13.393Z,95426.16
2023-05-09T11:27:44.172Z,95424.81
2023-05-09T11:30:14.719Z,95385.53
2023-05-09T11:32:45.890Z,95410.44
2023-05-09T11:35:18.136Z,95436.75
2023-05-09T11:37:48.469Z,95398.72
2023-05-09T11:40:19.159Z,95431.78
2023-05-09T11:42:50.190Z,95435.00
2023-05-09T11:45:19.160Z,95431.28
2023-05-09T11:47:48.768Z,95426.84
2023-05-09T11:50:20.144Z,95426.56
2023-05-09T11:52:49.053Z,95434.09
2023-05-09T11:55:22.219Z,95414.22
2023-05-09T11:57:54.615Z,95393.91
2023-05-09T12:00:24.840Z,95430.56
2023-05-09T12:02:54.965Z,95427.25
2023-05-09T12:05:24.806Z,95417.69
2023-05-09T12:07:53.863Z,95424.22
2023-05-09T12:10:23.957Z,95433.00
2023-05-09T12:12:55.864Z,95420.56
2023-05-09T12:15:25.227Z,95418.09
2023-05-09T12:18:03.597Z,95422.28
2023-05-09T12:20:45.166Z,95406.69
2023-05-09T12:23:14.672Z,95412.09
2023-05-09T12:25:50.771Z,95423.38
2023-05-09T12:28:19.494Z,95367.94
2023-05-09T12:30:47.820Z,95426.19
2023-05-09T12:33:16.750Z,95429.53
2023-05-09T12:35:48.813Z,95421.44
2023-05-09T12:38:23.541Z,95430.81
2023-05-09T12:41:03.643Z,95382.88
2023-05-09T12:43:33.385Z,95423.63
2023-05-09T12:46:03.775Z,95427.06
2023-05-09T12:48:39.098Z,95410.47
2023-05-09T12:51:09.460Z,95425.41
2023-05-09T12:53:40.519Z,95425.72
2023-05-09T12:56:14.866Z,95398.88
2023-05-09T12:58:51.260Z,95413.78
2023-05-09T13:01:19.835Z,95416.69
2023-05-09T13:03:53.513Z,95407.88
2023-05-09T13:06:24.319Z,95428.41
2023-05-09T13:09:01.592Z,95419.03
2023-05-09T13:11:30.956Z,95417.34
2023-05-09T13:13:59.627Z,95414.19
2023-05-09T13:16:28.396Z,95414.81
2023-05-09T13:18:56.803Z,95411.81
2023-05-09T13:21:26.446Z,95408.16
2023-05-09T13:23:54.598Z,95416.63
2023-05-09T13:26:23.107Z,95413.94
2023-05-09T13:28:52.029Z,95400.06
2023-05-09T13:31:20.243Z,95414.84
2023-05-09T13:33:50.934Z,95395.38
2023-05-09T13:36:20.383Z,95403.84
2023-05-09T13:38:50.253Z,95405.75
2023-05-09T13:41:23.832Z,95396.16
2023-05-09T13:43:52.915Z,95371.69
2023-05-09T13:46:21.199Z,95404.28
2023-05-09T13:48:49.246Z,95407.16
2023-05-09T13:51:17.617Z,95405.03
2023-05-09T13:53:45.772Z,95402.59
2023-05-09T13:56:15.514Z,95401.22
2023-05-09T13:58:44.210Z,95398.53
2023-05-09T14:01:12.243Z,95405.63
2023-05-09T14:03:41.028Z,95405.44
2023-05-09T14:06:10.754Z,95402.44
2023-05-09T14:08:39.833Z,95406.06
2023-05-09T14:11:09.009Z,95398.22
2023-05-09T14:13:38.874Z,95362.03
2023-05-09T14:16:07.744Z,95406.38
2023-05-09T14:18:36.068Z,95388.72
2023-05-09T14:21:04.263Z,95401.56
2023-05-09T14:23:32.366Z,95401.25
2023-05-09T14:26:00.333Z,95401.88
2023-05-09T14:28:28.850Z,95400.78
2023-05-09T14:30:58.668Z,95396.72
2023-05-09T14:33:27.670Z,95353.13
2023-05-09T14:35:56.644Z,95392.06
2023-05-09T14:38:24.561Z,95380.13
2023-05-09T14:40:53.595Z,95390.41
2023-05-09T14:43:22.630Z,95396.72
2023-05-09T14:45:51.259Z,95395.53
2023-05-09T14:48:21.163Z,95391.31
2023-05-09T14:50:50.110Z,95390.38
2023-05-09T14:53:19.110Z,95393.13
2023-05-09T14:55:47.336Z,95384.06
2023-05-09T14:58:16.305Z,95387.09
2023-05-09T15:00:44.448Z,95394.03
2023-05-09T15:03:12.658Z,95382.56
2023-05-09T15:05:44.072Z,95389.81
2023-05-09T15:08:12.524Z,95365.81
2023-05-09T15:10:41.148Z,95399.16
2023-05-09T15:13:11.718Z,95360.53
2023-05-09T15:15:40.709Z,95392.78
2023-05-09T15:18:10.426Z,95391.59
2023-05-09T15:20:39.696Z,95391.16
2023-05-09T15:23:09.573Z,95353.56
2023-05-09T15:25:38.029Z,95275.00
2023-05-09T15:28:08.991Z,95390.81
2023-05-09T15:30:39.284Z,95394.09
2023-05-09T15:33:07.570Z,95399.50
2023-05-09T15:35:35.811Z,95370.06
2023-05-09T15:38:04.688Z,95403.28
2023-05-09T15:40:34.257Z,95397.56
2023-05-09T15:43:08.208Z,95396.63
2023-05-09T15:45:38.021Z,95396.47
2023-05-09T15:48:07.757Z,95401.16
2023-05-09T15:50:36.142Z,95389.66
2023-05-09T15:53:04.115Z,95334.78
2023-05-09T15:55:34.934Z,95402.13
2023-05-09T15:58:03.174Z,95391.38
2023-05-09T16:00:31.739Z,95405.53
2023-05-09T16:03:00.138Z,95405.50
2023-05-09T16:05:28.581Z,95398.19
2023-05-09T16:07:56.685Z,95403.94
2023-05-09T16:10:31.677Z,95410.63
2023-05-09T16:13:01.770Z,95404.47
2023-05-09T16:15:31.754Z,95408.47
2023-05-09T16:17:59.990Z,95400.97
2023-05-09T16:20:30.074Z,95417.03
2023-05-09T16:22:58.046Z,95403.16
2023-05-09T16:25:26.278Z,95391.22
2023-05-09T16:27:55.613Z,95412.94
2023-05-09T16:30:25.579Z,95417.47
2023-05-09T16:32:54.521Z,95421.41
2023-05-09T16:35:23.241Z,95415.97
2023-05-09T16:37:53.350Z,95424.09
2023-05-09T16:40:23.093Z,95422.44
2023-05-09T16:42:51.114Z,95367.97
2023-05-09T16:45:19.701Z,95425.50
2023-05-09T16:47:49.434Z,95437.22
2023-05-09T16:50:19.905Z,95442.06
2023-05-09T16:52:48.250Z,95429.41
2023-05-09T16:55:16.353Z,95432.69
2023-05-09T16:57:46.711Z,95429.66
2023-05-09T17:00:15.851Z,95427.25
2023-05-09T17:02:45.480Z,95413.03
2023-05-09T17:05:24.707Z,95416.94
2023-05-09T17:07:52.858Z,95429.75
2023-05-09T17:10:21.772Z,95421.88
2023-05-09T17:12:50.674Z,95432.19
2023-05-09T17:15:21.345Z,95437.84
2023-05-09T17:17:49.363Z,95423.97
2023-05-09T17:20:19.417Z,95431.75
2023-05-09T17:22:47.259Z,95440.66
2023-05-09T17:25:15.253Z,95441.84
2023-05-09T17:27:43.704Z,95441.75
2023-05-09T17:30:13.157Z,95445.97
2023-05-09T17:32:45.182Z,95405.78
2023-05-09T17:35:13.932Z,95393.25
2023-05-09T17:37:46.155Z,95450.63
2023-05-09T17:40:15.319Z,95446.72
2023-05-09T17:42:43.852Z,95392.19
2023-05-09T17:45:13.324Z,95449.22
2023-05-09T17:47:42.696Z,95454.31
2023-05-09T17:50:14.773Z,95445.78
2023-05-09T17:52:44.791Z,95459.91
2023-05-09T17:55:13.413Z,95455.91
2023-05-09T17:57:43.233Z,95461.56
2023-05-09T18:00:13.087Z,95462.31
2023-05-09T18:02:41.902Z,95456.72
2023-05-09T18:05:11.304Z,95469.25
2023-05-09T18:07:41.188Z,95467.44
2023-05-09T18:10:13.699Z,95462.78
2023-05-09T18:12:42.404Z,95469.41
2023-05-09T18:15:12.074Z,95480.44
2023-05-09T18:17:40.934Z,95472.22
2023-05-09T18:20:12.156Z,95479.34
2023-05-09T18:22:43.032Z,95477.84
2023-05-09T18:25:13.674Z,95482.56
2023-05-09T18:27:46.962Z,95478.78
2023-05-09T18:30:16.683Z,95488.19
2023-05-09T18:32:47.111Z,95488.50
2023-05-09T18:35:16.014Z,95491.66
2023-05-09T18:37:44.099Z,95504.41
2023-05-09T18:40:16.369Z,95488.63
2023-05-09T18:42:46.322Z,95501.91
2023-05-09T18:45:14.598Z,95500.19
2023-05-09T18:47:42.995Z,95489.03
2023-05-09T18:50:15.197Z,95501.69
2023-05-09T18:52:44.681Z,95490.88
2023-05-09T18:55:15.131Z,95485.88
2023-05-09T18:57:43.275Z,95491.59
2023-05-09T19:00:12.991Z,95495.50
2023-05-09T19:02:41.222Z,95498.53
2023-05-09T19:05:10.948Z,95502.41
2023-05-09T19:07:41.400Z,95497.53
2023-05-09T19:10:10.528Z,95504.13
2023-05-09T19:12:41.887Z,95503.47
2023-05-09T19:15:12.814Z,95505.50
2023-05-09T19:17:40.748Z,95511.38
2023-05-09T19:20:10.252Z,95513.31
2023-05-09T19:22:41.624Z,95507.78
2023-05-09T19:25:10.593Z,95523.69
2023-05-09T19:27:43.462Z,95513.41
2023-05-09T19:30:13.144Z,95511.03
2023-05-09T19:32:41.960Z,95518.16
2023-05-09T19:35:11.577Z,95518.50
2023-05-09T19:37:39.666Z,95459.72
2023-05-09T19:40:09.318Z,95523.88
2023-05-09T19:42:38.108Z,95517.28
2023-05-09T19:45:09.245Z,95516.44
2023-05-09T19:47:37.294Z,95528.09
2023-05-09T19:50:06.353Z,95519.69
2023-05-09T19:52:36.559Z,95515.69
2023-05-09T19:55:06.931Z,95510.38
2023-05-09T19:57:35.013Z,95483.78
2023-05-09T20:00:03.336Z,95509.53
2023-05-09T20:02:33.184Z,95506.50
2023-05-09T20:05:01.844Z,95497.97
2023-05-09T20:07:29.907Z,95509.41
2023-05-09T20:09:59.570Z,95498.72
2023-05-09T20:12:30.088Z,95504.78
2023-05-09T20:14:58.767Z,95500.44
2023-05-09T20:17:26.712Z,95503.06
2023-05-09T20:19:57.830Z,95504.13
2023-05-09T20:22:26.395Z,95503.28
2023-05-09T20:24:54.805Z,95497.09
2023-05-09T20:27:23.678Z,95497.19
2023-05-09T20:29:51.811Z,95507.50
2023-05-09T20:32:19.677Z,95480.88
2023-05-09T20:34:47.803Z,95506.28
2023-05-09T20:37:17.295Z,95504.78
2023-05-09T20:39:45.552Z,95491.47
2023-05-09T20:42:13.801Z,95490.94
2023-05-09T20:44:43.800Z,95490.28
2023-05-09T20:47:11.898Z,95494.50
2023-05-09T20:49:40.233Z,95477.09
2023-05-09T20:52:08.379Z,95485.00
2023-05-09T20:54:37.774Z,95474.44
2023-05-09T20:57:05.853Z,95483.47
2023-05-09T20:59:33.950Z,95477.19
2023-05-09T21:02:04.321Z,95478.84
2023-05-09T21:04:32.358Z,95474.94
2023-05-09T21:07:00.610Z,95479.81
2023-05-09T21:09:28.513Z,95475.59
2023-05-09T21:12:04.003Z,95482.94
2023-05-09T21:14:32.528Z,95483.59
2023-05-09T21:17:00.668Z,95500.44
2023-05-09T21:19:30.578Z,95490.19
2023-05-09T21:21:59.968Z,95483.59
2023-05-09T21:24:27.984Z,95488.97
2023-05-09T21:26:57.508Z,95473.50
2023-05-09T21:29:25.957Z,95474.47
2023-05-09T21:31:55.165Z,95480.94
2023-05-09T21:34:24.612Z,95490.78
2023-05-09T21:36:53.068Z,95476.22
2023-05-09T21:39:21.593Z,95480.72
2023-05-09T21:41:49.890Z,95481.50
2023-05-09T21:44:22.594Z,95481.50
2023-05-09T21:46:51.354Z,95484.53
2023-05-09T21:49:21.715Z,95480.72
2023-05-09T21:51:49.773Z,95471.66
2023-05-09T21:54:18.202Z,95470.25
2023-05-09T21:56:46.414Z,95464.84
2023-05-09T21:59:14.817Z,95468.31
2023-05-09T22:01:45.885Z,95453.28
2023-05-09T22:04:14.469Z,95465.06
2023-05-09T22:06:44.095Z,95453.19
2023-05-09T22:09:12.121Z,95462.91
2023-05-09T22:11:40.403Z,95464.19
2023-05-09T22:14:10.442Z,95461.25
2023-05-09T22:16:38.729Z,95461.91
2023-05-09T22:19:09.215Z,95458.78
2023-05-09T22:21:37.527Z,95461.25
2023-05-09T22:24:07.681Z,95458.22
2023-05-09T22:26:37.293Z,95457.22
2023-05-09T22:29:07.667Z,95454.53
2023-05-09T22:31:35.988Z,95455.59
2023-05-09T22:34:05.414Z,95463.34
2023-05-09T22:36:34.804Z,95454.72
2023-05-09T22:39:03.514Z,95457.75
2023-05-09T22:41:31.669Z,95443.25
2023-05-09T22:43:59.640Z,95440.97
2023-05-09T22:46:27.836Z,95413.31
2023-05-09T22:48:57.580Z,95450.19
2023-05-09T22:51:25.792Z,95438.53
2023-05-09T22:53:55.159Z,95440.78
2023-05-09T22:56:23.650Z,95440.06
2023-05-09T22:58:51.989Z,95433.88
2023-05-09T23:01:20.702Z,95425.47
2023-05-09T23:03:48.879Z,95437.16
2023-05-09T23:06:16.887Z,95442.13
2023-05-09T23:08:45.542Z,95431.41
2023-05-09T23:11:15.657Z,95443.41
2023-05-09T23:13:43.846Z,95430.69
2023-05-09T23:16:11.878Z,95436.94
2023-05-09T23:18:41.185Z,95438.31
2023-05-09T23:21:09.955Z,95435.31
2023-05-09T23:23:38.104Z,95385.19
2023-05-09T23:26:06.226Z,95441.22
2023-05-09T23:28:35.915Z,95428.25
2023-05-09T23:31:05.638Z,95436.50
2023-05-09T23:33:34.024Z,95432.28
2023-05-09T23:36:02.422Z,95426.22
2023-05-09T23:38:30.695Z,95424.38
2023-05-09T23:41:00.585Z,95416.28
2023-05-09T23:43:28.929Z,95433.22
2023-05-09T23:45:58.530Z,95435.41
2023-05-09T23:48:27.567Z,95426.22
2023-05-09T23:50:55.620Z,95433.13
2023-05-09T23:53:23.637Z,95407.41
2023-05-09T23:55:52.138Z,95384.34
2023-05-09T23:58:20.286Z,95417.81
